Home   Weather   USA   Kitty Hawk   Past weeks
Flag for USA

Past Weather in Kitty Hawk, North Carolina, USA — Yesterday and Last 2 Weeks

Currently: 65 °F. Sunny. (Weather station: First Flight Airport, USA). See more current weather

Past Weather in Kitty Hawk — Graph

°F

Kitty Hawk Temperature Yesterday

Maximum temperature yesterday: 82 °F (at 12:55 pm)
Minimum temperature yesterday: 66 °F (at 5:15 pm)
Average temperature yesterday: 72 °F

High & Low Weather Summary for the Past Weeks

 TemperatureHumidityPressure
High83 °F (May 3, 4:35 pm)100% (May 4, 1:15 am)30.17 "Hg (May 4, 1:15 am)
Low47 °F (May 9, 1:35 am)53% (May 7, 2:55 pm)29.49 "Hg (May 7, 5:35 am)
Average63 °F87%29.96 "Hg
* Reported May 2 7:15 am — May 17 7:15 am, Kitty Hawk. Weather by CustomWeather, © 2022

Note: Actual official high and low records may vary slightly from our data, if they occured in-between our weather recording intervals... More about our weather records

Kitty Hawk Weather History for the Previous 24 Hours

Scroll right to see more
 ConditionsComfort  
Time TempWeatherWind HumidityBarometerVisibility
7:15 am
Tue, May 17
65 °FSunny.No wind62%29.91 "Hg10 mi
6:55 am63 °FSunny.3 mph64%29.91 "Hg10 mi
6:35 am63 °FSunny.No wind64%29.91 "Hg10 mi
6:15 am63 °FSunny.No wind66%29.90 "Hg10 mi
5:55 am63 °FSunny.No wind66%29.90 "Hg10 mi
5:35 am63 °FClear.3 mph67%29.89 "Hg10 mi
5:15 am64 °FClear.No wind66%29.89 "Hg10 mi
4:35 am64 °FClear.No wind66%29.88 "Hg10 mi
4:15 am65 °FClear.No wind63%29.87 "Hg10 mi
3:55 am65 °FClear.No wind63%29.86 "Hg10 mi
3:35 am65 °FClear.5 mph64%29.86 "Hg10 mi
3:15 am65 °FPassing clouds.7 mph67%29.85 "Hg10 mi
2:35 am66 °FPassing clouds.5 mph80%29.85 "Hg10 mi
1:55 am68 °FOvercast.5 mph95%29.86 "Hg10 mi
1:15 am68 °FOvercast.5 mph92%29.86 "Hg10 mi
12:35 am68 °FPassing clouds.No wind93%29.83 "Hg10 mi
12:15 am68 °FPartly cloudy.5 mph92%29.82 "Hg10 mi
11:55 pm
Mon, May 16
68 °FMostly cloudy.No wind91%29.82 "Hg10 mi
11:35 pm68 °FMostly cloudy.5 mph88%29.81 "Hg10 mi
11:15 pm69 °FMostly cloudy.5 mph84%29.81 "Hg10 mi
10:55 pm69 °FPassing clouds.7 mph84%29.81 "Hg10 mi
10:35 pm69 °FPassing clouds.8 mph88%29.81 "Hg10 mi
10:15 pm70 °FPassing clouds.5 mph90%29.80 "Hg10 mi
9:55 pm70 °FClear.7 mph90%29.78 "Hg10 mi
9:35 pm69 °FPassing clouds.8 mph92%29.77 "Hg10 mi
9:15 pm70 °FPassing clouds.6 mph95%29.76 "Hg10 mi
8:55 pm70 °FPassing clouds.5 mph95%29.74 "Hg10 mi
8:35 pm71 °FPassing clouds.5 mph93%29.76 "Hg10 mi
8:15 pm71 °FMostly cloudy.5 mph92%29.76 "Hg10 mi
7:55 pm71 °FBroken clouds.7 mph92%29.76 "Hg10 mi
7:35 pm71 °FPartly sunny.6 mph92%29.75 "Hg10 mi
7:15 pm71 °FDrizzle. Partly sunny.5 mph90%29.75 "Hg10 mi
6:55 pm70 °FScattered clouds.6 mph86%29.73 "Hg10 mi
6:35 pm70 °FSunny.5 mph87%29.73 "Hg10 mi
6:15 pm69 °FSunny.5 mph88%29.73 "Hg10 mi
5:55 pm67 °FSunny.5 mph90%29.73 "Hg10 mi
5:35 pm66 °FScattered clouds.6 mph91%29.73 "Hg10 mi
5:15 pm66 °FLight rain. More clouds than sun.5 mph91%29.74 "Hg5 mi
4:35 pm76 °FScattered clouds.18 mph70%29.78 "Hg10 mi
4:15 pm78 °FSunny.7 mph67%29.70 "Hg10 mi
3:35 pm80 °FScattered clouds.10 mph63%29.71 "Hg10 mi
2:55 pm81 °FScattered clouds.10 mph63%29.73 "Hg10 mi
2:35 pm80 °FScattered clouds.9 mph65%29.74 "Hg10 mi
2:15 pm81 °FScattered clouds.6 mph62%29.76 "Hg10 mi
1:55 pm82 °FSunny.10 mph61%29.77 "Hg10 mi
1:35 pm82 °FSunny.7 mph60%29.78 "Hg10 mi
12:55 pm82 °FSunny.7 mph59%29.80 "Hg10 mi
12:35 pm81 °FSunny.6 mph60%29.81 "Hg10 mi
12:15 pm80 °FSunny.8 mph61%29.82 "Hg10 mi
11:55 am80 °FSunny.8 mph62%29.83 "Hg10 mi
11:35 am79 °FSunny.7 mph63%29.83 "Hg10 mi
11:15 am79 °FSunny.9 mph64%29.84 "Hg10 mi
10:55 am78 °FSunny.7 mph65%29.83 "Hg10 mi
10:35 am77 °FSunny.6 mph68%29.83 "Hg10 mi
10:15 am76 °FSunny.8 mph72%29.83 "Hg10 mi
9:55 am75 °FSunny.10 mph74%29.83 "Hg10 mi
8:55 am73 °FSunny.7 mph81%29.83 "Hg10 mi
8:35 am71 °FSunny.8 mph88%29.83 "Hg10 mi
8:15 am70 °FSunny.8 mph93%29.83 "Hg10 mi
Weather by CustomWeather, © 2022

See weather overview